createdAt,value
2023-05-24T00:01:11.129Z,12.80
2023-05-24T00:03:39.791Z,12.40
2023-05-24T00:06:07.614Z,12.50
2023-05-24T00:08:35.839Z,12.70
2023-05-24T00:11:03.678Z,12.50
2023-05-24T00:13:30.775Z,12.30
2023-05-24T00:15:57.917Z,12.60
2023-05-24T00:18:26.502Z,12.70
2023-05-24T00:20:53.604Z,13.10
2023-05-24T00:23:21.701Z,13.70
2023-05-24T00:25:49.224Z,11.80
2023-05-24T00:28:16.493Z,13.80
2023-05-24T00:30:44.220Z,12.80
2023-05-24T00:33:12.077Z,13.80
2023-05-24T00:35:39.147Z,13.40
2023-05-24T00:38:06.755Z,13.50
2023-05-24T00:40:34.310Z,12.80
2023-05-24T00:43:01.623Z,13.50
2023-05-24T00:45:29.703Z,14.00
2023-05-24T00:47:58.379Z,13.40
2023-05-24T00:50:26.154Z,12.30
2023-05-24T00:52:53.470Z,13.90
2023-05-24T00:55:21.129Z,13.40
2023-05-24T00:57:48.245Z,13.80
2023-05-24T01:00:16.710Z,13.20
2023-05-24T01:10:55.453Z,14.10
2023-05-24T01:15:12.728Z,13.60
2023-05-24T01:19:16.923Z,14.40
2023-05-24T01:23:06.350Z,13.10
2023-05-24T01:26:38.336Z,11.10
2023-05-24T01:30:25.058Z,14.30
2023-05-24T01:34:16.610Z,15.10
2023-05-24T01:43:41.612Z,16.10
2023-05-24T01:47:16.137Z,15.00
2023-05-24T01:51:25.577Z,16.70
2023-05-24T01:55:14.703Z,13.70
2023-05-24T01:59:05.941Z,16.10
2023-05-24T02:03:08.855Z,15.90
2023-05-24T02:06:56.925Z,16.20
2023-05-24T02:10:45.205Z,13.40
2023-05-24T02:14:36.677Z,15.20
2023-05-24T02:18:36.812Z,16.20
2023-05-24T02:22:24.968Z,14.90
2023-05-24T02:26:14.069Z,16.10
2023-05-24T02:30:02.096Z,16.20
2023-05-24T02:33:53.333Z,15.60
2023-05-24T02:37:41.641Z,16.50
2023-05-24T02:41:34.800Z,16.20
2023-05-24T02:45:26.615Z,14.00
2023-05-24T02:49:13.984Z,17.00
2023-05-24T02:52:47.479Z,16.70
2023-05-24T02:55:34.737Z,18.00
2023-05-24T02:58:06.530Z,19.10
2023-05-24T03:00:36.404Z,18.40
2023-05-24T03:03:07.088Z,17.10
2023-05-24T03:05:34.778Z,19.60
2023-05-24T03:08:01.913Z,19.60
2023-05-24T03:10:29.169Z,22.10
2023-05-24T03:12:56.836Z,21.00
2023-05-24T03:15:24.219Z,21.80
2023-05-24T03:17:52.195Z,20.50
2023-05-24T03:20:21.389Z,18.20
2023-05-24T03:22:48.499Z,22.20
2023-05-24T03:25:15.775Z,21.90
2023-05-24T03:27:43.493Z,18.20
2023-05-24T03:30:20.179Z,22.50
2023-05-24T03:32:47.571Z,21.00
2023-05-24T03:35:15.577Z,21.70
2023-05-24T03:40:23.374Z,21.60
2023-05-24T03:42:51.200Z,21.30
2023-05-24T03:45:26.928Z,21.00
2023-05-24T03:50:21.655Z,20.90
2023-05-24T03:52:48.951Z,21.40
2023-05-24T03:55:16.582Z,21.60
2023-05-24T03:57:43.872Z,21.30
2023-05-24T04:00:13.021Z,21.20
2023-05-24T04:02:41.139Z,22.10
2023-05-24T04:05:11.332Z,21.30
2023-05-24T04:07:38.653Z,21.70
2023-05-24T04:10:08.721Z,19.90
2023-05-24T04:12:36.110Z,21.20
2023-05-24T04:15:03.727Z,20.80
2023-05-24T04:17:35.559Z,20.80
2023-05-24T04:20:04.020Z,20.10
2023-05-24T04:22:31.179Z,20.00
2023-05-24T04:24:58.635Z,18.50
2023-05-24T04:27:28.401Z,19.90
2023-05-24T04:29:55.441Z,19.00
2023-05-24T04:32:24.179Z,19.70
2023-05-24T04:34:53.074Z,19.60
2023-05-24T04:37:20.133Z,19.10
2023-05-24T04:39:48.121Z,16.80
2023-05-24T04:42:16.292Z,19.30
2023-05-24T04:44:43.618Z,18.80
2023-05-24T04:47:11.590Z,18.60
2023-05-24T04:49:39.928Z,17.30
2023-05-24T04:52:07.706Z,17.40
2023-05-24T04:54:35.321Z,17.70
2023-05-24T04:57:02.224Z,17.20
2023-05-24T04:59:34.370Z,17.80
2023-05-24T05:02:02.273Z,16.70
2023-05-24T05:04:32.441Z,15.60
2023-05-24T05:06:59.762Z,18.50
2023-05-24T05:09:29.049Z,16.10
2023-05-24T05:11:56.374Z,17.20
2023-05-24T05:14:23.613Z,16.90
2023-05-24T05:16:50.783Z,15.70
2023-05-24T05:19:18.023Z,16.10
2023-05-24T05:21:45.120Z,16.00
2023-05-24T05:24:13.490Z,16.40
2023-05-24T05:26:40.527Z,16.30
2023-05-24T05:29:07.678Z,14.40
2023-05-24T05:31:35.683Z,15.50
2023-05-24T05:34:02.677Z,16.30
2023-05-24T05:36:29.702Z,15.30
2023-05-24T05:38:57.840Z,14.80
2023-05-24T05:41:25.002Z,13.30
2023-05-24T05:43:51.980Z,15.40
2023-05-24T05:46:21.845Z,15.70
2023-05-24T05:48:49.546Z,14.40
2023-05-24T05:51:16.588Z,15.40
2023-05-24T05:53:44.171Z,16.10
2023-05-24T05:56:11.521Z,14.60
2023-05-24T05:58:39.415Z,14.80
2023-05-24T06:01:06.783Z,15.10
2023-05-24T06:03:34.053Z,14.40
2023-05-24T06:06:01.885Z,14.20
2023-05-24T06:08:31.597Z,15.20
2023-05-24T06:10:59.657Z,15.90
2023-05-24T06:13:28.755Z,14.80
2023-05-24T06:15:56.361Z,14.40
2023-05-24T06:18:23.714Z,14.60
2023-05-24T06:20:50.910Z,14.40
2023-05-24T06:23:18.348Z,15.10
2023-05-24T06:25:45.503Z,15.20
2023-05-24T06:28:12.549Z,14.70
2023-05-24T06:30:40.180Z,15.60
2023-05-24T06:33:07.391Z,14.60
2023-05-24T06:35:34.289Z,15.00
2023-05-24T06:38:01.987Z,13.80
2023-05-24T06:40:29.832Z,13.30
2023-05-24T06:42:59.023Z,13.00
2023-05-24T06:45:26.377Z,12.90
2023-05-24T06:47:53.688Z,14.00
2023-05-24T06:50:20.899Z,14.90
2023-05-24T06:52:49.120Z,14.10
2023-05-24T06:55:16.910Z,14.60
2023-05-24T06:57:44.112Z,13.70
2023-05-24T07:00:16.554Z,12.80
2023-05-24T07:02:43.963Z,12.50
2023-05-24T07:05:12.769Z,12.20
2023-05-24T07:07:44.319Z,11.70
2023-05-24T07:10:12.423Z,11.20
2023-05-24T07:12:39.541Z,10.10
2023-05-24T07:15:09.956Z,10.60
2023-05-24T07:17:37.407Z,9.90
2023-05-24T07:20:08.533Z,9.00
2023-05-24T07:22:36.343Z,8.30
2023-05-24T07:25:05.083Z,9.40
2023-05-24T07:27:32.300Z,8.70
2023-05-24T07:29:59.652Z,6.90
2023-05-24T07:32:27.480Z,8.70
2023-05-24T07:34:55.754Z,7.20
2023-05-24T07:37:25.457Z,8.50
2023-05-24T07:39:52.534Z,7.70
2023-05-24T07:42:19.680Z,8.60
2023-05-24T07:44:47.687Z,10.20
2023-05-24T07:47:15.166Z,8.50
2023-05-24T07:49:42.365Z,7.80
2023-05-24T07:52:10.015Z,7.40
2023-05-24T07:54:37.714Z,7.50
2023-05-24T07:57:08.725Z,7.60
2023-05-24T07:59:36.688Z,6.80
2023-05-24T08:02:05.997Z,8.00
2023-05-24T08:04:36.086Z,8.00
2023-05-24T08:07:04.550Z,7.70
2023-05-24T08:09:36.026Z,8.40
2023-05-24T08:12:04.685Z,7.50
2023-05-24T08:14:32.115Z,8.30
2023-05-24T08:17:01.235Z,8.20
2023-05-24T08:19:29.149Z,8.10
2023-05-24T08:21:57.801Z,8.30
2023-05-24T08:24:24.856Z,8.70
2023-05-24T08:26:53.201Z,9.50
2023-05-24T08:29:21.010Z,9.10
2023-05-24T08:31:48.366Z,8.90
2023-05-24T08:34:16.279Z,9.40
2023-05-24T08:36:45.887Z,9.60
2023-05-24T08:39:13.814Z,9.00
2023-05-24T08:41:41.955Z,9.70
2023-05-24T08:44:09.209Z,10.60
2023-05-24T08:46:37.744Z,10.80
2023-05-24T08:49:06.066Z,9.40
2023-05-24T08:51:34.609Z,9.20
2023-05-24T08:54:02.890Z,9.50
2023-05-24T08:56:31.435Z,10.40
2023-05-24T08:59:01.658Z,11.00
2023-05-24T09:01:37.355Z,9.70
2023-05-24T09:04:19.131Z,14.00
2023-05-24T09:06:48.081Z,8.40
2023-05-24T09:09:20.826Z,9.90
2023-05-24T09:11:52.670Z,9.20
2023-05-24T09:14:21.267Z,8.10
2023-05-24T09:16:48.767Z,8.90
2023-05-24T09:19:19.974Z,8.20
2023-05-24T09:21:50.534Z,9.00
2023-05-24T09:24:22.664Z,8.30
2023-05-24T09:26:52.622Z,6.90
2023-05-24T09:29:25.549Z,8.70
2023-05-24T09:32:00.521Z,8.90
2023-05-24T09:34:28.443Z,7.70
2023-05-24T09:36:58.856Z,8.60
2023-05-24T09:39:27.586Z,7.60
2023-05-24T09:41:59.350Z,8.80
2023-05-24T09:44:30.270Z,9.00
2023-05-24T09:47:46.673Z,6.70
2023-05-24T09:50:21.034Z,9.40
2023-05-24T09:52:49.173Z,8.70
2023-05-24T09:55:19.407Z,8.60
2023-05-24T09:58:46.782Z,8.70
2023-05-24T10:01:19.826Z,8.70
2023-05-24T10:04:26.174Z,7.60
2023-05-24T10:07:15.750Z,9.10
2023-05-24T10:09:47.254Z,9.90
2023-05-24T10:12:34.460Z,9.50
2023-05-24T10:15:07.530Z,9.80
2023-05-24T10:17:46.941Z,8.40
2023-05-24T10:20:23.167Z,9.10
2023-05-24T10:23:16.592Z,8.20
2023-05-24T10:26:13.099Z,8.60
2023-05-24T10:28:49.588Z,9.30
2023-05-24T10:31:42.423Z,8.30
2023-05-24T10:34:11.937Z,9.80
2023-05-24T10:36:41.682Z,9.70
2023-05-24T10:39:13.529Z,8.90
2023-05-24T10:41:43.151Z,9.20
2023-05-24T10:44:28.848Z,9.50
2023-05-24T10:47:20.330Z,9.70
2023-05-24T10:50:10.557Z,8.10
2023-05-24T10:52:39.702Z,8.40
2023-05-24T10:55:37.528Z,8.50
2023-05-24T10:58:46.611Z,8.90
2023-05-24T11:01:32.987Z,8.90
2023-05-24T11:04:28.601Z,9.10
2023-05-24T11:07:06.612Z,9.30
2023-05-24T11:09:35.409Z,7.70
2023-05-24T11:12:10.997Z,7.70
2023-05-24T11:14:41.472Z,8.20
2023-05-24T11:17:11.557Z,8.20
2023-05-24T11:19:53.654Z,6.30
2023-05-24T11:22:29.288Z,7.10
2023-05-24T11:25:21.611Z,7.80
2023-05-24T11:28:12.370Z,7.90
2023-05-24T11:30:47.114Z,6.20
2023-05-24T11:33:23.674Z,7.80
2023-05-24T11:36:18.105Z,6.90
2023-05-24T11:38:47.644Z,7.70
2023-05-24T11:41:24.749Z,7.90
2023-05-24T11:44:13.307Z,7.70
2023-05-24T11:46:43.870Z,8.10
2023-05-24T11:49:20.404Z,8.70
2023-05-24T11:51:53.780Z,8.00
2023-05-24T11:54:23.829Z,7.90
2023-05-24T11:57:05.838Z,9.50
2023-05-24T12:02:56.281Z,12.50
2023-05-24T12:06:18.116Z,10.90
2023-05-24T12:09:07.022Z,7.10
2023-05-24T12:12:19.744Z,7.80
2023-05-24T12:15:31.617Z,11.10
2023-05-24T12:18:22.076Z,10.60
2023-05-24T12:20:57.669Z,9.00
2023-05-24T12:23:29.690Z,7.40
2023-05-24T12:26:01.194Z,10.60
2023-05-24T12:28:41.116Z,10.60
2023-05-24T12:31:15.701Z,8.20
2023-05-24T12:33:54.125Z,7.50
2023-05-24T12:36:27.779Z,9.10
2023-05-24T12:40:00.418Z,8.20
2023-05-24T12:42:59.736Z,7.50
2023-05-24T12:45:30.506Z,10.90
2023-05-24T12:48:39.909Z,8.00
2023-05-24T12:51:31.247Z,14.20
2023-05-24T12:54:00.019Z,11.10
2023-05-24T12:57:08.360Z,7.60
2023-05-24T13:00:16.560Z,7.70
2023-05-24T13:02:43.929Z,7.70
2023-05-24T13:05:51.653Z,7.50
2023-05-24T13:09:09.528Z,7.90
2023-05-24T13:11:47.573Z,8.00
2023-05-24T13:14:34.963Z,6.70
2023-05-24T13:17:35.612Z,7.30
2023-05-24T13:20:36.863Z,6.50
2023-05-24T13:23:48.585Z,5.90
2023-05-24T13:26:24.712Z,6.10
2023-05-24T13:32:41.487Z,6.30
2023-05-24T13:35:46.389Z,5.60
2023-05-24T13:38:30.139Z,6.20
2023-05-24T13:41:43.568Z,7.00
2023-05-24T13:44:32.900Z,6.40
2023-05-24T13:47:41.442Z,6.50
2023-05-24T13:50:49.939Z,7.10
2023-05-24T13:54:17.435Z,7.20
2023-05-24T13:57:13.548Z,6.60
2023-05-24T14:00:03.237Z,6.50
2023-05-24T14:02:32.563Z,5.40
2023-05-24T14:05:27.849Z,11.10
2023-05-24T14:09:10.303Z,9.30
2023-05-24T14:12:25.100Z,6.40
2023-05-24T14:15:17.663Z,7.80
2023-05-24T14:17:51.551Z,7.40
2023-05-24T14:20:38.915Z,6.60
2023-05-24T14:23:22.261Z,8.90
2023-05-24T14:26:12.384Z,7.00
2023-05-24T14:29:30.515Z,45.40
2023-05-24T14:32:04.329Z,12.70
2023-05-24T14:34:54.586Z,9.70
2023-05-24T14:38:07.185Z,8.50
2023-05-24T14:41:32.313Z,8.50
2023-05-24T14:44:59.520Z,11.60
2023-05-24T14:48:25.775Z,7.00
2023-05-24T14:51:20.874Z,7.40
2023-05-24T14:54:08.579Z,7.40
2023-05-24T14:56:47.237Z,7.40
2023-05-24T14:59:54.909Z,7.10
2023-05-24T15:05:35.578Z,7.40
2023-05-24T15:08:04.381Z,10.90
2023-05-24T15:10:44.925Z,24.00
2023-05-24T15:13:53.007Z,13.10
2023-05-24T15:17:00.607Z,9.10
2023-05-24T15:20:09.038Z,8.20
2023-05-24T15:23:20.607Z,7.20
2023-05-24T15:26:29.486Z,6.40
2023-05-24T15:29:20.420Z,6.90
2023-05-24T15:31:52.725Z,6.60
2023-05-24T15:34:22.895Z,5.90
2023-05-24T15:36:51.478Z,6.80
2023-05-24T15:39:20.864Z,6.40
2023-05-24T15:41:48.511Z,6.20
2023-05-24T15:44:16.184Z,6.50
2023-05-24T15:46:44.059Z,5.60
2023-05-24T15:49:11.213Z,6.10
2023-05-24T15:54:09.697Z,6.50
2023-05-24T15:56:36.675Z,5.50
2023-05-24T15:59:04.027Z,5.70
2023-05-24T16:01:32.905Z,5.70
2023-05-24T16:04:01.140Z,5.90
2023-05-24T16:06:31.470Z,6.20
2023-05-24T16:08:58.596Z,7.90
2023-05-24T16:11:25.577Z,6.20
2023-05-24T16:13:55.336Z,6.10
2023-05-24T16:16:24.081Z,6.10
2023-05-24T16:18:51.590Z,7.10
2023-05-24T16:21:20.030Z,6.70
2023-05-24T16:23:47.462Z,6.60
2023-05-24T16:26:14.680Z,6.50
2023-05-24T16:28:42.939Z,6.10
2023-05-24T16:31:10.803Z,6.60
2023-05-24T16:33:38.069Z,5.40
2023-05-24T16:36:05.677Z,6.10
2023-05-24T16:38:33.278Z,5.50
2023-05-24T16:41:00.752Z,5.90
2023-05-24T16:43:28.826Z,6.90
2023-05-24T16:45:56.402Z,6.50
2023-05-24T16:48:31.200Z,11.50
2023-05-24T16:50:59.325Z,32.60
2023-05-24T16:53:27.430Z,107.70
2023-05-24T16:55:56.527Z,30.70
2023-05-24T16:58:25.064Z,11.80
2023-05-24T17:00:54.785Z,8.50
2023-05-24T17:03:29.159Z,7.30
2023-05-24T17:06:01.902Z,5.90
2023-05-24T17:08:30.793Z,7.40
2023-05-24T17:10:59.430Z,9.70
2023-05-24T17:13:30.388Z,7.20
2023-05-24T17:15:58.860Z,6.40
2023-05-24T17:18:29.889Z,6.40
2023-05-24T17:21:02.148Z,6.00
2023-05-24T17:23:32.037Z,6.80
2023-05-24T17:26:01.389Z,6.50
2023-05-24T17:28:29.628Z,6.70
2023-05-24T17:31:01.097Z,6.40
2023-05-24T17:33:29.990Z,6.10
2023-05-24T17:35:58.667Z,6.20
2023-05-24T17:38:26.277Z,6.10
2023-05-24T17:40:57.327Z,6.10
2023-05-24T17:43:25.843Z,6.60
2023-05-24T17:45:53.372Z,6.20
2023-05-24T17:48:20.572Z,5.90
2023-05-24T17:50:48.298Z,5.70
2023-05-24T17:53:30.223Z,6.50
2023-05-24T17:56:04.628Z,7.30
2023-05-24T17:58:36.946Z,6.60
2023-05-24T18:01:05.954Z,39.10
2023-05-24T18:03:41.336Z,42.80
2023-05-24T18:06:10.057Z,47.00
2023-05-24T18:08:41.458Z,15.70
2023-05-24T18:11:09.060Z,9.80
2023-05-24T18:13:38.022Z,6.80
2023-05-24T18:16:06.322Z,7.40
2023-05-24T18:18:33.659Z,6.70
2023-05-24T18:21:01.255Z,6.60
2023-05-24T18:23:28.654Z,6.60
2023-05-24T18:26:01.312Z,6.40
2023-05-24T18:28:46.079Z,6.70
2023-05-24T18:31:15.175Z,6.40
2023-05-24T18:33:42.689Z,6.00
2023-05-24T18:36:10.712Z,6.20
2023-05-24T18:38:40.289Z,5.50
2023-05-24T18:41:12.814Z,6.30
2023-05-24T18:43:40.660Z,6.30
2023-05-24T18:46:07.980Z,7.60
2023-05-24T18:48:35.520Z,6.50
2023-05-24T18:51:02.945Z,6.20
2023-05-24T18:53:30.200Z,6.40
2023-05-24T18:55:58.326Z,6.60
2023-05-24T18:58:27.849Z,5.90
2023-05-24T19:00:55.918Z,6.00
2023-05-24T19:03:23.658Z,6.50
2023-05-24T19:05:52.680Z,6.20
2023-05-24T19:08:19.621Z,6.50
2023-05-24T19:10:48.194Z,6.00
2023-05-24T19:13:16.170Z,6.10
2023-05-24T19:15:43.870Z,6.20
2023-05-24T19:18:11.182Z,6.50
2023-05-24T19:20:38.939Z,6.30
2023-05-24T19:23:06.255Z,5.90
2023-05-24T19:25:41.259Z,7.90
2023-05-24T19:28:09.355Z,8.10
2023-05-24T19:30:37.930Z,7.70
2023-05-24T19:33:05.742Z,7.30
2023-05-24T19:35:34.147Z,7.30
2023-05-24T19:38:01.960Z,7.60
2023-05-24T19:40:30.646Z,7.50
2023-05-24T19:42:58.476Z,8.10
2023-05-24T19:45:26.133Z,7.40
2023-05-24T19:47:54.256Z,8.40
2023-05-24T19:50:22.234Z,8.00
2023-05-24T19:52:49.503Z,7.60
2023-05-24T19:55:17.138Z,7.90
2023-05-24T19:57:46.681Z,8.00
2023-05-24T20:00:14.336Z,8.60
2023-05-24T20:02:45.387Z,8.50
2023-05-24T20:05:13.361Z,8.80
2023-05-24T20:07:40.696Z,7.80
2023-05-24T20:10:08.731Z,8.40
2023-05-24T20:12:36.108Z,8.40
2023-05-24T20:15:03.555Z,7.30
2023-05-24T20:17:31.982Z,8.40
2023-05-24T20:19:59.304Z,9.00
2023-05-24T20:22:26.515Z,8.30
2023-05-24T20:24:53.807Z,8.60
2023-05-24T20:27:21.890Z,8.40
2023-05-24T20:29:49.042Z,8.50
2023-05-24T20:32:16.798Z,11.60
2023-05-24T20:34:57.084Z,10.80
2023-05-24T20:37:24.725Z,11.80
2023-05-24T20:39:52.125Z,12.00
2023-05-24T20:42:19.701Z,11.40
2023-05-24T20:44:47.072Z,11.40
2023-05-24T20:47:19.510Z,11.70
2023-05-24T20:49:46.760Z,10.60
2023-05-24T20:52:15.202Z,10.80
2023-05-24T20:54:43.306Z,10.30
2023-05-24T20:57:10.630Z,11.20
2023-05-24T20:59:37.856Z,10.90
2023-05-24T21:02:05.393Z,11.80
2023-05-24T21:04:32.662Z,12.00
2023-05-24T21:07:00.194Z,11.90
2023-05-24T21:09:27.919Z,12.30
2023-05-24T21:11:55.358Z,11.50
2023-05-24T21:14:22.508Z,11.60
2023-05-24T21:16:50.006Z,11.60
2023-05-24T21:19:17.166Z,11.10
2023-05-24T21:21:44.623Z,11.80
2023-05-24T21:24:12.509Z,12.10
2023-05-24T21:26:39.492Z,11.10
2023-05-24T21:29:07.069Z,12.10
2023-05-24T21:31:36.111Z,12.00
2023-05-24T21:34:04.051Z,11.40
2023-05-24T21:36:32.524Z,11.20
2023-05-24T21:38:59.814Z,11.60
2023-05-24T21:44:10.204Z,11.40
2023-05-24T21:46:37.444Z,12.10
2023-05-24T21:49:04.982Z,11.20
2023-05-24T21:51:40.361Z,12.10
2023-05-24T21:54:07.690Z,12.90
2023-05-24T21:56:35.128Z,14.20
2023-05-24T21:59:02.482Z,13.20
2023-05-24T22:01:29.758Z,15.10
2023-05-24T22:03:57.281Z,15.70
2023-05-24T22:06:26.003Z,16.10
2023-05-24T22:08:53.266Z,15.80
2023-05-24T22:11:20.801Z,14.90
2023-05-24T22:13:48.432Z,16.70
2023-05-24T22:16:15.931Z,16.40
2023-05-24T22:18:43.123Z,14.90
2023-05-24T22:21:10.482Z,15.30
2023-05-24T22:23:37.811Z,15.60
2023-05-24T22:26:05.277Z,13.80
2023-05-24T22:28:48.831Z,13.80
2023-05-24T22:31:16.218Z,13.70
2023-05-24T22:33:43.522Z,13.50
2023-05-24T22:36:12.800Z,12.30
2023-05-24T22:38:40.157Z,13.60
2023-05-24T22:41:07.507Z,12.90
2023-05-24T22:43:35.069Z,12.20
2023-05-24T22:46:02.840Z,12.50
2023-05-24T22:48:34.222Z,10.70
2023-05-24T22:51:02.053Z,11.70
2023-05-24T22:53:29.383Z,9.80
2023-05-24T22:55:56.761Z,10.60
2023-05-24T22:58:24.697Z,11.20
2023-05-24T23:00:52.435Z,12.40
2023-05-24T23:03:19.860Z,10.90
2023-05-24T23:05:47.353Z,12.10
2023-05-24T23:08:14.617Z,12.00
2023-05-24T23:10:53.000Z,12.60
2023-05-24T23:13:20.350Z,12.40
2023-05-24T23:15:49.025Z,11.50
2023-05-24T23:18:22.671Z,13.40
2023-05-24T23:20:54.579Z,12.60
2023-05-24T23:23:22.401Z,12.20
2023-05-24T23:25:54.002Z,11.90
2023-05-24T23:28:21.365Z,11.50
2023-05-24T23:30:48.799Z,11.80
2023-05-24T23:33:16.485Z,11.00
2023-05-24T23:35:43.938Z,11.90
2023-05-24T23:38:11.557Z,11.00
2023-05-24T23:40:39.326Z,10.80
2023-05-24T23:43:06.721Z,11.70
2023-05-24T23:45:34.151Z,11.20
2023-05-24T23:48:02.113Z,11.30
2023-05-24T23:50:33.039Z,12.30
2023-05-24T23:53:05.647Z,12.40
2023-05-24T23:55:32.873Z,10.30
2023-05-24T23:58:01.004Z,11.10
